Time;durP1;ratioP1;P1;durP2;ratioP2;P2;SDS_P1;SDS_P2;PMS_P1;PMS_P2;Temp;Humidity;BMP_temperature;BMP_pressure;BME280_temperature;BME280_humidity;BME280_pressure;Samples;Min_cycle;Max_cycle;Signal;HPM_P1;HPM_P2
2022/02/21 00:15:41;;;;;;;;;;;7.00;99.90;;;;;;6158374;23;19967;-88
2022/02/21 00:18:27;;;;;;;;;;;7.00;99.90;;;;;;6134516;23;19909;-87
2022/02/21 00:24:16;;;;;;;;;;;7.00;99.90;;;;;;6037399;23;19910;-85
2022/02/21 00:26:51;;;;;;;;;;;7.00;99.90;;;;;;6182404;23;19931;-86
2022/02/21 00:29:29;;;;;;;;;;;;;;;;;;;;;
2022/02/21 00:34:57;;;;;;;;;;;7.00;99.90;;;;;;6182300;23;19956;-85
2022/02/21 00:37:41;;;;;;;;;;;7.00;99.90;;;;;;6189257;23;19908;-89
2022/02/21 00:40:36;;;;;;;;;;;7.00;99.90;;;;;;6163395;23;19952;-89
2022/02/21 00:43:33;;;;;;;;;;;7.10;99.90;;;;;;6188819;23;20365;-88
2022/02/21 00:46:10;;;;;;;;;;;7.10;99.90;;;;;;6179053;23;19971;-87
2022/02/21 00:48:46;;;;;;;;;;;7.00;99.90;;;;;;6164373;23;19932;-89
2022/02/21 00:51:39;;;;;;;;;;;;;;;;;;;;;
2022/02/21 00:54:16;;;;;;;;;;;7.00;99.90;;;;;;6188304;23;20385;-88
2022/02/21 00:57:33;;;;;;;;;;;;;;;;;;;;;
2022/02/21 01:00:12;;;;;;;;;;;;;;;;;;;;;
2022/02/21 01:02:46;;;;;;;;;;;6.90;99.90;;;;;;6189111;23;19971;-88
2022/02/21 01:05:40;;;;;;;;;;;;;;;;;;;;;
2022/02/21 01:08:16;;;;;;;;;;;;;;;;;;;;;
2022/02/21 01:11:18;;;;;;;;;;;;;;;;;;;;;
2022/02/21 01:13:49;;;;;;;;;;;6.90;99.90;;;;;;6188627;23;19980;-89
2022/02/21 01:16:45;;;;;;;;;;;;;;;;;;;;;
2022/02/21 01:22:41;;;;;;;;;;;;;;;;;;;;;
2022/02/21 01:25:29;;;;;;;;;;;6.90;99.90;;;;;;6191131;23;19951;-88
2022/02/21 01:28:04;;;;;;;;;;;6.90;99.90;;;;;;6179787;23;19904;-88
2022/02/21 01:30:40;;;;;;;;;;;6.90;99.90;;;;;;6169065;23;19919;-87
2022/02/21 01:33:14;;;;;;;;;;;6.80;99.40;;;;;;6210544;23;19892;-87
2022/02/21 01:35:56;;;;;;;;;;;6.80;99.50;;;;;;6192161;23;19907;-89
2022/02/21 01:38:27;;;;;;;;;;;6.80;99.30;;;;;;6214516;23;19896;-88
2022/02/21 01:43:49;;;;;;;;;;;6.70;99.40;;;;;;6182363;23;19912;-88
2022/02/21 01:55:07;;;;;;;;;;;;;;;;;;;;;
2022/02/21 01:57:58;;;;;;;;;;;6.60;98.40;;;;;;6191599;23;19987;-88
2022/02/21 02:00:58;;;;;;;;;;;;;;;;;;;;;
2022/02/21 02:03:54;;;;;;;;;;;;;;;;;;;;;
2022/02/21 02:06:49;;;;;;;;;;;6.60;98.00;;;;;;6176335;23;19984;-88
2022/02/21 02:10:00;;;;;;;;;;;6.50;98.10;;;;;;6165687;23;19908;-87
2022/02/21 02:12:26;;;;;;;;;;;6.50;98.10;;;;;;6154535;23;19915;-88
2022/02/21 02:14:54;;;;;;;;;;;6.50;98.00;;;;;;6164739;23;19915;-88
2022/02/21 02:17:50;;;;;;;;;;;6.50;98.00;;;;;;6140268;23;19912;-87
2022/02/21 02:20:26;;;;;;;;;;;6.50;97.60;;;;;;6163503;23;19944;-88
2022/02/21 02:23:10;;;;;;;;;;;;;;;;;;;;;
2022/02/21 02:25:53;;;;;;;;;;;;;;;;;;;;;
2022/02/21 02:28:48;;;;;;;;;;;6.40;97.00;;;;;;6166741;23;19992;-88
2022/02/21 02:31:28;;;;;;;;;;;6.40;97.00;;;;;;6147128;23;19984;-88
2022/02/21 02:33:56;;;;;;;;;;;6.40;97.20;;;;;;6163542;23;20007;-87
2022/02/21 02:36:23;;;;;;;;;;;6.40;97.40;;;;;;6189393;23;19944;-88
2022/02/21 02:38:51;;;;;;;;;;;6.40;97.30;;;;;;6162481;23;19962;-89
2022/02/21 02:44:28;;;;;;;;;;;6.20;97.20;;;;;;6184487;23;19979;-88
2022/02/21 02:47:24;;;;;;;;;;;;;;;;;;;;;
2022/02/21 02:49:58;;;;;;;;;;;6.20;97.40;;;;;;6190475;23;19984;-87
2022/02/21 02:52:48;;;;;;;;;;;6.10;97.20;;;;;;6166673;23;19904;-87
2022/02/21 02:55:17;;;;;;;;;;;6.20;97.30;;;;;;6206470;23;19908;-88
2022/02/21 02:57:48;;;;;;;;;;;6.10;97.10;;;;;;6160884;23;19919;-90
2022/02/21 03:00:17;;;;;;;;;;;6.20;96.80;;;;;;6189387;23;19912;-86
2022/02/21 03:03:13;;;;;;;;;;;;;;;;;;;;;
2022/02/21 03:05:57;;;;;;;;;;;6.10;96.60;;;;;;6201621;23;19904;-90
2022/02/21 03:08:40;;;;;;;;;;;6.10;96.50;;;;;;6149461;23;20334;-89
2022/02/21 03:11:39;;;;;;;;;;;;;;;;;;;;;
2022/02/21 03:14:10;;;;;;;;;;;6.10;96.40;;;;;;6188151;23;19920;-85
2022/02/21 03:17:06;;;;;;;;;;;6.10;96.70;;;;;;6171054;23;19912;-85
2022/02/21 03:19:32;;;;;;;;;;;6.10;96.50;;;;;;6198543;23;19904;-85
2022/02/21 03:22:08;;;;;;;;;;;6.10;96.50;;;;;;6176023;23;19957;-85
2022/02/21 03:25:01;;;;;;;;;;;;;;;;;;;;;
2022/02/21 03:27:48;;;;;;;;;;;6.00;96.30;;;;;;6173236;23;19939;-88
2022/02/21 03:30:27;;;;;;;;;;;6.00;96.20;;;;;;6189914;23;20270;-89
2022/02/21 03:32:59;;;;;;;;;;;6.00;96.40;;;;;;6139503;23;19933;-88
2022/02/21 03:35:24;;;;;;;;;;;5.90;96.70;;;;;;6138472;23;20300;-87
2022/02/21 03:38:12;;;;;;;;;;;;;;;;;;;;;
2022/02/21 03:40:53;;;;;;;;;;;5.80;97.40;;;;;;6188558;23;19944;-89
2022/02/21 03:43:47;;;;;;;;;;;5.70;97.80;;;;;;6140013;23;19909;-89
2022/02/21 03:46:25;;;;;;;;;;;;;;;;;;;;;
2022/02/21 03:49:10;;;;;;;;;;;5.70;97.70;;;;;;6189148;23;20370;-88
2022/02/21 03:51:58;;;;;;;;;;;5.70;97.80;;;;;;6162909;23;20006;-86
2022/02/21 03:54:27;;;;;;;;;;;5.70;97.80;;;;;;6162035;23;19904;-88
2022/02/21 03:57:00;;;;;;;;;;;5.70;97.20;;;;;;6188530;23;19908;-85
2022/02/21 03:59:54;;;;;;;;;;;5.70;97.10;;;;;;6162783;23;19958;-88
2022/02/21 04:02:19;;;;;;;;;;;5.70;97.00;;;;;;6165896;23;19909;-87
2022/02/21 04:05:05;;;;;;;;;;;;;;;;;;;;;
2022/02/21 04:07:41;;;;;;;;;;;;;;;;;;;;;
2022/02/21 04:13:07;;;;;;;;;;;5.70;96.50;;;;;;6188755;23;19959;-87
2022/02/21 04:16:06;;;;;;;;;;;;;;;;;;;;;
2022/02/21 04:18:29;;;;;;;;;;;5.70;96.50;;;;;;6158077;23;19920;-88
2022/02/21 04:20:54;;;;;;;;;;;5.80;96.30;;;;;;6165245;23;19905;-89
2022/02/21 04:23:47;;;;;;;;;;;5.80;96.40;;;;;;6172344;23;19920;-87
2022/02/21 04:29:15;;;;;;;;;;;5.80;96.60;;;;;;6207835;23;19972;-88
2022/02/21 04:32:11;;;;;;;;;;;;;;;;;;;;;
2022/02/21 04:34:39;;;;;;;;;;;5.80;96.10;;;;;;6177556;23;19975;-87
2022/02/21 04:37:10;;;;;;;;;;;5.80;96.30;;;;;;6162907;23;20223;-89
2022/02/21 04:40:09;;;;;;;;;;;;;;;;;;;;;
2022/02/21 04:48:20;;;;;;;;;;;5.90;95.30;;;;;;6166158;23;19919;-88
2022/02/21 04:51:25;;;;;;;;;;;;;;;;;;;;;
2022/02/21 04:57:03;;;;;;;;;;;5.80;94.40;;;;;;6196388;23;19912;-87
2022/02/21 04:59:37;;;;;;;;;;;5.80;94.40;;;;;;6191711;23;19914;-86
2022/02/21 05:02:32;;;;;;;;;;;5.70;94.20;;;;;;6217931;23;19904;-86
2022/02/21 05:05:18;;;;;;;;;;;5.70;94.10;;;;;;6194966;23;19987;-87
2022/02/21 05:08:01;;;;;;;;;;;5.70;94.20;;;;;;6192829;23;19949;-87
2022/02/21 05:10:51;;;;;;;;;;;5.70;94.40;;;;;;6192099;23;19911;-88
2022/02/21 05:13:21;;;;;;;;;;;5.70;94.50;;;;;;6195403;23;19908;-88
2022/02/21 05:16:12;;;;;;;;;;;5.70;94.60;;;;;;6167581;23;19922;-88
2022/02/21 05:21:42;;;;;;;;;;;;;;;;;;;;;
2022/02/21 05:24:25;;;;;;;;;;;;;;;;;;;;;
2022/02/21 05:27:14;;;;;;;;;;;5.80;94.90;;;;;;6194470;23;19979;-87
2022/02/21 05:30:10;;;;;;;;;;;5.80;94.60;;;;;;6171422;23;19904;-88
2022/02/21 05:35:29;;;;;;;;;;;5.80;94.60;;;;;;6176074;23;19943;-87
2022/02/21 05:38:14;;;;;;;;;;;5.80;94.70;;;;;;6218572;23;19908;-88
2022/02/21 05:41:14;;;;;;;;;;;;;;;;;;;;;
2022/02/21 05:44:09;;;;;;;;;;;;;;;;;;;;;
2022/02/21 05:47:00;;;;;;;;;;;5.90;94.90;;;;;;6210982;23;20227;-88
2022/02/21 05:49:57;;;;;;;;;;;5.80;94.80;;;;;;6192960;23;19904;-87
2022/02/21 05:52:28;;;;;;;;;;;5.90;94.70;;;;;;6228321;23;19960;-89
2022/02/21 05:55:14;;;;;;;;;;;5.90;95.00;;;;;;6194522;23;19900;-90
2022/02/21 05:57:49;;;;;;;;;;;5.90;94.70;;;;;;6243424;23;19926;-88
2022/02/21 06:00:48;;;;;;;;;;;5.80;94.60;;;;;;6188256;23;19931;-89
2022/02/21 06:03:44;;;;;;;;;;;;;;;;;;;;;
2022/02/21 06:15:33;;;;;;;;;;;5.80;95.00;;;;;;6209986;23;19951;-87
2022/02/21 06:24:46;;;;;;;;;;;;;;;;;;;;;
2022/02/21 06:36:54;;;;;;;;;;;;;;;;;;;;;
2022/02/21 06:42:49;;;;;;;;;;;;;;;;;;;;;
2022/02/21 06:51:25;;;;;;;;;;;5.70;95.30;;;;;;6063296;23;19909;-89
2022/02/21 06:54:30;;;;;;;;;;;;;;;;;;;;;
2022/02/21 06:57:09;;;;;;;;;;;5.70;95.20;;;;;;6068214;23;19914;-89
2022/02/21 06:59:57;;;;;;;;;;;;;;;;;;;;;
2022/02/21 07:02:43;;;;;;;;;;;5.70;95.00;;;;;;6069611;23;20004;-90
2022/02/21 07:05:42;;;;;;;;;;;;;;;;;;;;;
2022/02/21 07:11:09;;;;;;;;;;;;;;;;;;;;;
2022/02/21 07:14:14;;;;;;;;;;;;;;;;;;;;;
2022/02/21 07:19:55;;;;;;;;;;;5.80;94.70;;;;;;6191894;23;19918;-91
2022/02/21 07:26:08;;;;;;;;;;;;;;;;;;;;;
2022/02/21 07:32:01;;;;;;;;;;;5.90;94.90;;;;;;6142818;23;20282;-90
2022/02/21 07:38:21;;;;;;;;;;;;;;;;;;;;;
2022/02/21 07:53:44;;;;;;;;;;;6.10;94.80;;;;;;6152616;23;20354;-90
2022/02/21 07:56:40;;;;;;;;;;;;;;;;;;;;;
2022/02/21 08:02:44;;;;;;;;;;;;;;;;;;;;;
2022/02/21 08:05:55;;;;;;;;;;;;;;;;;;;;;
2022/02/21 08:11:33;;;;;;;;;;;6.20;94.80;;;;;;5997705;23;19909;-90
2022/02/21 08:24:02;;;;;;;;;;;6.40;94.80;;;;;;5928840;24;19942;-91
2022/02/21 08:58:28;;;;;;;;;;;;;;;;;;;;;
2022/02/21 09:01:46;;;;;;;;;;;;;;;;;;;;;
2022/02/21 09:07:46;;;;;;;;;;;;;;;;;;;;;
2022/02/21 09:26:40;;;;;;;;;;;;;;;;;;;;;
2022/02/21 09:39:35;;;;;;;;;;;;;;;;;;;;;
2022/02/21 09:54:59;;;;;;;;;;;5.70;99.30;;;;;;5848161;24;20244;-87
2022/02/21 09:57:45;;;;;;;;;;;5.70;99.60;;;;;;5819706;24;19916;-88
2022/02/21 10:00:43;;;;;;;;;;;;;;;;;;;;;
2022/02/21 10:03:38;;;;;;;;;;;5.70;99.90;;;;;;5987973;24;20322;-89
2022/02/21 10:09:46;;;;;;;;;;;5.70;99.90;;;;;;6091368;23;19912;-88
2022/02/21 10:12:34;;;;;;;;;;;;;;;;;;;;;
2022/02/21 10:18:33;;;;;;;;;;;5.60;99.90;;;;;;6182901;23;19903;-88
2022/02/21 10:21:21;;;;;;;;;;;5.60;99.90;;;;;;6152526;23;19911;-88
2022/02/21 10:23:57;;;;;;;;;;;;;;;;;;;;;
2022/02/21 10:26:56;;;;;;;;;;;5.60;99.90;;;;;;6160273;23;19979;-89
2022/02/21 10:32:54;;;;;;;;;;;;;;;;;;;;;
2022/02/21 10:35:21;;;;;;;;;;;5.60;99.90;;;;;;6157097;23;19908;-87
2022/02/21 10:37:59;;;;;;;;;;;;;;;;;;;;;
2022/02/21 10:40:42;;;;;;;;;;;;;;;;;;;;;
2022/02/21 10:43:47;;;;;;;;;;;;;;;;;;;;;
2022/02/21 10:46:43;;;;;;;;;;;5.60;99.90;;;;;;6160743;23;20379;-88
2022/02/21 10:52:48;;;;;;;;;;;;;;;;;;;;;
2022/02/21 11:01:41;;;;;;;;;;;;;;;;;;;;;
2022/02/21 11:04:42;;;;;;;;;;;5.60;99.90;;;;;;6159945;23;20413;-87
2022/02/21 11:07:30;;;;;;;;;;;5.60;99.90;;;;;;6157790;23;19915;-88
2022/02/21 11:10:28;;;;;;;;;;;;;;;;;;;;;
2022/02/21 11:16:38;;;;;;;;;;;5.60;99.90;;;;;;6070082;23;19919;-87
2022/02/21 11:19:42;;;;;;;;;;;5.60;99.90;;;;;;6127890;23;19924;-88
2022/02/21 11:22:11;;;;;;;;;;;5.60;99.90;;;;;;6133337;23;19953;-86
2022/02/21 11:24:46;;;;;;;;;;;5.60;99.90;;;;;;6159276;23;20346;-88
2022/02/21 11:27:35;;;;;;;;;;;5.60;99.90;;;;;;6133615;23;20316;-89
2022/02/21 11:30:16;;;;;;;;;;;5.60;99.90;;;;;;6134863;23;19908;-88
2022/02/21 11:33:04;;;;;;;;;;;5.60;99.90;;;;;;6138677;23;19916;-86
2022/02/21 11:36:20;;;;;;;;;;;;;;;;;;;;;
2022/02/21 11:38:41;;;;;;;;;;;5.60;99.90;;;;;;6167668;23;19920;-85
2022/02/21 11:41:21;;;;;;;;;;;5.60;99.90;;;;;;6158666;23;19931;-89
2022/02/21 11:43:57;;;;;;;;;;;5.70;99.90;;;;;;6155587;23;19928;-85
2022/02/21 11:46:36;;;;;;;;;;;5.70;99.90;;;;;;6153278;23;19948;-87
2022/02/21 11:49:47;;;;;;;;;;;5.70;99.90;;;;;;6139710;23;19928;-84
2022/02/21 11:55:51;;;;;;;;;;;5.80;99.90;;;;;;6169148;23;19915;-85
2022/02/21 11:58:22;;;;;;;;;;;5.90;99.90;;;;;;6137693;23;19908;-87
2022/02/21 12:01:00;;;;;;;;;;;5.90;99.90;;;;;;6144355;23;19916;-84
2022/02/21 12:03:30;;;;;;;;;;;6.00;99.90;;;;;;6134917;23;19991;-88
2022/02/21 12:05:55;;;;;;;;;;;6.00;99.90;;;;;;6165516;23;19913;-87
2022/02/21 12:08:26;;;;;;;;;;;6.10;99.90;;;;;;6130373;23;19932;-85
2022/02/21 12:11:11;;;;;;;;;;;;;;;;;;;;;
2022/02/21 12:13:59;;;;;;;;;;;;;;;;;;;;;
2022/02/21 12:16:32;;;;;;;;;;;6.30;99.90;;;;;;6158823;23;19988;-88
2022/02/21 12:19:25;;;;;;;;;;;6.30;99.90;;;;;;6155922;23;19932;-88
2022/02/21 12:25:21;;;;;;;;;;;;;;;;;;;;;
2022/02/21 12:28:11;;;;;;;;;;;6.50;99.90;;;;;;6158061;23;20260;-89
2022/02/21 12:30:57;;;;;;;;;;;;;;;;;;;;;
2022/02/21 12:33:32;;;;;;;;;;;6.70;99.90;;;;;;6158537;23;19980;-87
2022/02/21 12:42:53;;;;;;;;;;;6.90;99.90;;;;;;6094621;23;19909;-89
2022/02/21 12:45:35;;;;;;;;;;;;;;;;;;;;;
2022/02/21 12:48:32;;;;;;;;;;;7.00;99.90;;;;;;6158338;23;19995;-88
2022/02/21 12:51:06;;;;;;;;;;;7.10;99.90;;;;;;6117999;23;20004;-88
2022/02/21 12:53:56;;;;;;;;;;;7.20;99.90;;;;;;6158724;23;19919;-89
2022/02/21 12:56:25;;;;;;;;;;;7.20;99.90;;;;;;6132988;23;19908;-89
2022/02/21 12:59:12;;;;;;;;;;;;;;;;;;;;;
2022/02/21 13:05:21;;;;;;;;;;;;;;;;;;;;;
2022/02/21 13:08:10;;;;;;;;;;;7.50;99.90;;;;;;6180748;23;19915;-90
2022/02/21 13:13:58;;;;;;;;;;;7.60;99.90;;;;;;6164934;23;19896;-88
2022/02/21 13:16:42;;;;;;;;;;;7.60;99.90;;;;;;5991464;23;19917;-87
2022/02/21 13:19:32;;;;;;;;;;;7.70;99.90;;;;;;6041552;23;19927;-89
2022/02/21 13:22:04;;;;;;;;;;;7.70;99.90;;;;;;6132674;23;19904;-88
2022/02/21 13:25:09;;;;;;;;;;;7.70;99.90;;;;;;6132886;23;19955;-88
2022/02/21 13:27:45;;;;;;;;;;;7.70;99.90;;;;;;6135853;23;19960;-89
2022/02/21 13:30:39;;;;;;;;;;;7.70;99.90;;;;;;6157800;23;19908;-89
2022/02/21 13:33:41;;;;;;;;;;;;;;;;;;;;;
2022/02/21 13:39:37;;;;;;;;;;;7.80;99.90;;;;;;6157997;23;19968;-88
2022/02/21 13:42:26;;;;;;;;;;;;;;;;;;;;;
2022/02/21 13:48:36;;;;;;;;;;;;;;;;;;;;;
2022/02/21 13:54:49;;;;;;;;;;;7.90;99.90;;;;;;6143278;23;19919;-88
2022/02/21 14:03:38;;;;;;;;;;;7.90;99.90;;;;;;6028034;23;19938;-90
2022/02/21 14:06:24;;;;;;;;;;;7.90;99.90;;;;;;6015720;23;19906;-89
2022/02/21 14:10:20;;;;;;;;;;;;;;;;;;;;;
2022/02/21 14:22:26;;;;;;;;;;;7.80;99.90;;;;;;5983235;24;19913;-89
2022/02/21 14:28:40;;;;;;;;;;;7.80;99.90;;;;;;6099070;23;19905;-88
2022/02/21 14:49:40;;;;;;;;;;;;;;;;;;;;;
2022/02/21 14:52:42;;;;;;;;;;;;;;;;;;;;;
2022/02/21 15:02:05;;;;;;;;;;;7.80;99.90;;;;;;6128581;23;20250;-87
2022/02/21 15:04:47;;;;;;;;;;;7.70;99.90;;;;;;6193370;23;19946;-89
2022/02/21 15:07:38;;;;;;;;;;;;;;;;;;;;;
2022/02/21 15:10:50;;;;;;;;;;;;;;;;;;;;;
2022/02/21 15:13:39;;;;;;;;;;;7.70;99.70;;;;;;6150070;23;19979;-89
2022/02/21 15:16:24;;;;;;;;;;;7.70;99.80;;;;;;6173712;23;19959;-88
2022/02/21 15:19:18;;;;;;;;;;;7.70;99.70;;;;;;6190630;23;19915;-88
2022/02/21 15:21:51;;;;;;;;;;;7.60;99.80;;;;;;6192263;23;19904;-87
2022/02/21 15:24:21;;;;;;;;;;;7.70;99.60;;;;;;6167542;23;19915;-87
2022/02/21 15:27:18;;;;;;;;;;;;;;;;;;;;;
2022/02/21 15:30:40;;;;;;;;;;;7.70;99.90;;;;;;6218929;23;19982;-87
2022/02/21 15:34:21;;;;;;;;;;;;;;;;;;;;;
2022/02/21 15:36:41;;;;;;;;;;;7.70;99.60;;;;;;6033373;23;19988;-89
2022/02/21 15:39:28;;;;;;;;;;;7.70;99.40;;;;;;6067852;23;19936;-87
2022/02/21 15:42:04;;;;;;;;;;;;;;;;;;;;;
2022/02/21 15:44:59;;;;;;;;;;;7.70;99.00;;;;;;6162334;23;19995;-88
2022/02/21 15:47:41;;;;;;;;;;;;;;;;;;;;;
2022/02/21 15:53:35;;;;;;;;;;;;;;;;;;;;;
2022/02/21 16:02:10;;;;;;;;;;;7.60;98.60;;;;;;6218299;23;19908;-89
2022/02/21 16:07:37;;;;;;;;;;;7.60;98.70;;;;;;6200942;23;19908;-88
2022/02/21 16:16:59;;;;;;;;;;;7.60;99.10;;;;;;6201956;23;20311;-88
2022/02/21 16:19:50;;;;;;;;;;;7.70;99.00;;;;;;6150746;23;20278;-91
2022/02/21 16:23:04;;;;;;;;;;;;;;;;;;;;;
2022/02/21 16:26:07;;;;;;;;;;;;;;;;;;;;;
2022/02/21 16:28:56;;;;;;;;;;;7.80;99.20;;;;;;6068651;23;19992;-88
2022/02/21 16:31:58;;;;;;;;;;;;;;;;;;;;;
2022/02/21 16:34:36;;;;;;;;;;;7.80;99.10;;;;;;6068160;23;20289;-87
2022/02/21 16:37:16;;;;;;;;;;;7.80;99.20;;;;;;6020392;23;19918;-89
2022/02/21 16:40:05;;;;;;;;;;;7.80;99.20;;;;;;6021085;23;19917;-87
2022/02/21 16:42:36;;;;;;;;;;;7.80;99.30;;;;;;6054849;23;19948;-87
2022/02/21 16:48:34;;;;;;;;;;;;;;;;;;;;;
2022/02/21 16:51:27;;;;;;;;;;;;;;;;;;;;;
2022/02/21 16:57:33;;;;;;;;;;;;;;;;;;;;;
2022/02/21 17:00:15;;;;;;;;;;;7.80;98.80;;;;;;6217265;23;20044;-89
2022/02/21 17:06:13;;;;;;;;;;;7.90;98.80;;;;;;6126049;23;19908;-89
2022/02/21 17:09:03;;;;;;;;;;;;;;;;;;;;;
2022/02/21 17:12:00;;;;;;;;;;;7.90;98.70;;;;;;6126223;23;19976;-90
2022/02/21 17:17:21;;;;;;;;;;;7.90;98.70;;;;;;6110940;23;20386;-87
2022/02/21 17:20:14;;;;;;;;;;;;;;;;;;;;;
2022/02/21 17:22:50;;;;;;;;;;;7.90;98.50;;;;;;6103968;23;19987;-88
2022/02/21 17:28:35;;;;;;;;;;;7.90;98.60;;;;;;6072279;23;19912;-89
2022/02/21 17:34:15;;;;;;;;;;;7.90;98.70;;;;;;6108612;23;19940;-90
2022/02/21 17:37:23;;;;;;;;;;;;;;;;;;;;;
2022/02/21 17:51:20;;;;;;;;;;;;;;;;;;;;;
2022/02/21 17:53:57;;;;;;;;;;;;;;;;;;;;;
2022/02/21 17:56:31;;;;;;;;;;;7.90;99.60;;;;;;6163152;23;19995;-89
2022/02/21 18:06:09;;;;;;;;;;;;;;;;;;;;;
2022/02/21 18:09:06;;;;;;;;;;;;;;;;;;;;;
2022/02/21 18:14:54;;;;;;;;;;;;;;;;;;;;;
2022/02/21 18:33:20;;;;;;;;;;;7.90;99.90;;;;;;6227345;23;19911;-88
2022/02/21 18:39:34;;;;;;;;;;;;;;;;;;;;;
2022/02/21 18:43:01;;;;;;;;;;;;;;;;;;;;;
2022/02/21 18:50:58;;;;;;;;;;;7.90;99.90;;;;;;6182995;23;19931;-90
2022/02/21 18:53:27;;;;;;;;;;;7.90;99.90;;;;;;6182193;23;19924;-89
2022/02/21 19:08:30;;;;;;;;;;;7.90;99.90;;;;;;6153247;23;19897;-88
2022/02/21 19:11:08;;;;;;;;;;;7.90;99.80;;;;;;6152147;23;19992;-89
2022/02/21 19:14:01;;;;;;;;;;;;;;;;;;;;;
2022/02/21 19:16:35;;;;;;;;;;;7.80;99.40;;;;;;6202176;23;19951;-88
2022/02/21 19:31:50;;;;;;;;;;;7.90;98.90;;;;;;6077408;23;19952;-88
2022/02/21 19:34:45;;;;;;;;;;;7.80;98.90;;;;;;6173412;23;19930;-90
2022/02/21 19:37:23;;;;;;;;;;;;;;;;;;;;;
2022/02/21 19:39:52;;;;;;;;;;;7.90;98.70;;;;;;6224775;23;20311;-89
2022/02/21 19:42:32;;;;;;;;;;;7.90;98.50;;;;;;6174140;23;19916;-89
2022/02/21 19:47:55;;;;;;;;;;;7.90;98.30;;;;;;6103624;23;19905;-89
2022/02/21 19:54:25;;;;;;;;;;;;;;;;;;;;;
2022/02/21 19:57:06;;;;;;;;;;;7.90;98.10;;;;;;6224569;23;19932;-89
2022/02/21 20:00:07;;;;;;;;;;;7.90;97.90;;;;;;6175533;23;19915;-89
2022/02/21 20:02:58;;;;;;;;;;;7.90;98.00;;;;;;6206408;23;19927;-90
2022/02/21 20:06:04;;;;;;;;;;;7.90;97.80;;;;;;6198034;23;19986;-89
2022/02/21 20:08:46;;;;;;;;;;;7.90;97.70;;;;;;6199147;23;19911;-91
2022/02/21 20:11:14;;;;;;;;;;;7.90;97.90;;;;;;6199053;23;19915;-89
2022/02/21 20:13:49;;;;;;;;;;;7.90;97.70;;;;;;6198186;23;19954;-89
2022/02/21 20:16:27;;;;;;;;;;;7.90;97.50;;;;;;6174078;23;19923;-87
2022/02/21 20:19:33;;;;;;;;;;;7.90;97.40;;;;;;6175731;23;19908;-90
2022/02/21 20:22:15;;;;;;;;;;;7.90;97.30;;;;;;6075089;23;19929;-89
2022/02/21 20:24:52;;;;;;;;;;;7.90;97.50;;;;;;6189430;23;19904;-89
2022/02/21 20:27:53;;;;;;;;;;;7.90;97.40;;;;;;6200414;23;19904;-90
2022/02/21 20:30:38;;;;;;;;;;;7.90;97.30;;;;;;6052259;23;19905;-91
2022/02/21 20:33:34;;;;;;;;;;;;;;;;;;;;;
2022/02/21 20:36:34;;;;;;;;;;;;;;;;;;;;;
2022/02/21 20:39:32;;;;;;;;;;;7.90;97.10;;;;;;6047823;23;19901;-89
2022/02/21 20:42:16;;;;;;;;;;;7.90;97.00;;;;;;6234699;23;19904;-88
2022/02/21 20:44:59;;;;;;;;;;;7.80;96.90;;;;;;6238325;23;19904;-90
2022/02/21 20:50:49;;;;;;;;;;;7.80;97.20;;;;;;6178726;23;19904;-90
2022/02/21 21:05:45;;;;;;;;;;;7.90;97.40;;;;;;6056402;23;19906;-90
2022/02/21 21:08:37;;;;;;;;;;;;;;;;;;;;;
2022/02/21 21:14:31;;;;;;;;;;;;;;;;;;;;;
2022/02/21 21:17:23;;;;;;;;;;;7.80;97.30;;;;;;6049321;23;20392;-88
2022/02/21 21:20:45;;;;;;;;;;;7.80;97.40;;;;;;5988821;23;20055;-87
2022/02/21 21:26:39;;;;;;;;;;;;;;;;;;;;;
2022/02/21 21:35:57;;;;;;;;;;;;;;;;;;;;;
2022/02/21 21:38:58;;;;;;;;;;;7.80;97.20;;;;;;6165798;23;19920;-90
2022/02/21 21:41:36;;;;;;;;;;;;;;;;;;;;;
2022/02/21 21:44:18;;;;;;;;;;;;;;;;;;;;;
2022/02/21 21:47:07;;;;;;;;;;;7.70;97.50;;;;;;6228333;23;19931;-88
2022/02/21 21:53:23;;;;;;;;;;;;;;;;;;;;;
2022/02/21 21:56:17;;;;;;;;;;;;;;;;;;;;;
2022/02/21 21:59:28;;;;;;;;;;;;;;;;;;;;;
2022/02/21 22:02:08;;;;;;;;;;;;;;;;;;;;;
2022/02/21 22:05:22;;;;;;;;;;;;;;;;;;;;;
2022/02/21 22:08:09;;;;;;;;;;;7.60;97.50;;;;;;6206050;23;19893;-89
2022/02/21 22:10:44;;;;;;;;;;;7.60;97.60;;;;;;6190188;23;19936;-89
2022/02/21 22:19:41;;;;;;;;;;;;;;;;;;;;;
2022/02/21 22:22:27;;;;;;;;;;;7.50;97.70;;;;;;6047712;23;19992;-89
2022/02/21 22:25:36;;;;;;;;;;;7.50;97.70;;;;;;5981061;23;19906;-89
2022/02/21 22:28:14;;;;;;;;;;;;;;;;;;;;;
2022/02/21 22:30:47;;;;;;;;;;;7.40;97.80;;;;;;6190023;23;19983;-88
2022/02/21 22:36:24;;;;;;;;;;;;;;;;;;;;;
2022/02/21 22:41:56;;;;;;;;;;;7.40;97.80;;;;;;6141649;23;19939;-89
2022/02/21 22:47:53;;;;;;;;;;;;;;;;;;;;;
2022/02/21 22:50:47;;;;;;;;;;;7.30;97.80;;;;;;6183698;23;19939;-90
2022/02/21 22:53:54;;;;;;;;;;;7.30;97.80;;;;;;6163455;23;20015;-89
2022/02/21 22:56:53;;;;;;;;;;;;;;;;;;;;;
2022/02/21 23:02:18;;;;;;;;;;;;;;;;;;;;;
2022/02/21 23:05:11;;;;;;;;;;;7.20;97.90;;;;;;6190028;23;19979;-88
2022/02/21 23:08:12;;;;;;;;;;;;;;;;;;;;;
2022/02/21 23:11:19;;;;;;;;;;;7.20;97.90;;;;;;6181973;23;20000;-89
2022/02/21 23:13:53;;;;;;;;;;;7.20;97.90;;;;;;6160321;23;19912;-87
2022/02/21 23:16:24;;;;;;;;;;;7.20;98.00;;;;;;6164285;23;19936;-89
2022/02/21 23:19:18;;;;;;;;;;;7.20;98.00;;;;;;6163465;23;19979;-90
2022/02/21 23:22:38;;;;;;;;;;;;;;;;;;;;;
2022/02/21 23:25:04;;;;;;;;;;;7.20;98.10;;;;;;6187117;23;19912;-88
2022/02/21 23:30:45;;;;;;;;;;;7.20;98.10;;;;;;6174750;23;19908;-88
2022/02/21 23:33:49;;;;;;;;;;;7.20;98.20;;;;;;6165297;23;19955;-89
2022/02/21 23:36:27;;;;;;;;;;;7.20;98.20;;;;;;6169535;23;19916;-89
2022/02/21 23:39:14;;;;;;;;;;;;;;;;;;;;;
2022/02/21 23:41:43;;;;;;;;;;;7.20;98.30;;;;;;6214553;23;19899;-90
2022/02/21 23:47:32;;;;;;;;;;;;;;;;;;;;;
2022/02/21 23:50:37;;;;;;;;;;;;;;;;;;;;;
2022/02/21 23:53:33;;;;;;;;;;;;;;;;;;;;;
2022/02/21 23:56:35;;;;;;;;;;;7.30;98.50;;;;;;6184270;23;19944;-89
2022/02/21 23:59:03;;;;;;;;;;;7.20;98.50;;;;;;6172307;23;19905;-91
